Time;durP1;ratioP1;P1;durP2;ratioP2;P2;SDS_P1;SDS_P2;PMS_P1;PMS_P2;Temp;Humidity;BMP_temperature;BMP_pressure;BME280_temperature;BME280_humidity;BME280_pressure;Samples;Min_cycle;Max_cycle;Signal;HPM_P1;HPM_P2
2022/03/18 00:00:24;;;;;;;;;;;22.20;38.60;;;;;;688587;28;836;-94
2022/03/18 00:00:45;;;;;;;;;;;22.20;37.20;;;;;;688616;28;807;-91
2022/03/18 00:01:05;;;;;;;;;;;22.20;35.80;;;;;;688746;28;807;-92
2022/03/18 00:01:26;;;;;;;;;;;22.20;36.70;;;;;;688618;28;783;-88
2022/03/18 00:01:46;;;;;;;;;;;22.20;36.60;;;;;;688554;28;886;-90
2022/03/18 00:02:07;;;;;;;;;;;22.20;36.30;;;;;;688657;28;936;-90
2022/03/18 00:02:28;;;;;;;;;;;22.20;38.40;;;;;;688701;28;819;-87
2022/03/18 00:02:49;;;;;;;;;;;22.20;39.20;;;;;;688659;28;874;-89
2022/03/18 00:03:09;;;;;;;;;;;22.10;37.00;;;;;;688568;28;894;-88
2022/03/18 00:03:30;;;;;;;;;;;22.10;37.30;;;;;;688502;28;902;-91
2022/03/18 00:03:52;;;;;;;;;;;22.10;35.60;;;;;;688430;28;818;-90
2022/03/18 00:04:12;;;;;;;;;;;22.10;35.60;;;;;;688580;28;803;-90
2022/03/18 00:04:33;;;;;;;;;;;22.10;35.40;;;;;;688711;28;930;-84
2022/03/18 00:04:54;;;;;;;;;;;22.10;36.80;;;;;;688641;28;1178;-89
2022/03/18 00:05:15;;;;;;;;;;;22.10;38.10;;;;;;686128;28;1195;-89
2022/03/18 00:05:36;;;;;;;;;;;22.10;37.60;;;;;;685237;28;1186;-89
2022/03/18 00:05:56;;;;;;;;;;;22.10;36.20;;;;;;683371;29;776;-87
2022/03/18 00:06:17;;;;;;;;;;;22.10;36.20;;;;;;683205;29;906;-87
2022/03/18 00:06:39;;;;;;;;;;;22.10;36.40;;;;;;683325;29;974;-90
2022/03/18 00:06:59;;;;;;;;;;;22.10;35.70;;;;;;683920;28;894;-89
2022/03/18 00:07:21;;;;;;;;;;;22.10;36.00;;;;;;685904;28;1026;-90
2022/03/18 00:07:42;;;;;;;;;;;22.10;38.70;;;;;;686478;28;795;-93
2022/03/18 00:08:03;;;;;;;;;;;22.10;38.10;;;;;;688747;28;878;-87
2022/03/18 00:08:24;;;;;;;;;;;22.10;38.20;;;;;;688600;28;843;-91
2022/03/18 00:08:46;;;;;;;;;;;22.10;39.20;;;;;;688591;28;830;-85
2022/03/18 00:09:06;;;;;;;;;;;22.10;37.80;;;;;;688548;28;1969;-87
2022/03/18 00:09:27;;;;;;;;;;;22.10;37.30;;;;;;688838;28;830;-86
2022/03/18 00:09:48;;;;;;;;;;;22.10;38.50;;;;;;688614;28;1236;-88
2022/03/18 00:10:09;;;;;;;;;;;22.00;38.00;;;;;;688959;28;866;-82
2022/03/18 00:10:31;;;;;;;;;;;22.00;39.50;;;;;;688776;28;783;-89
2022/03/18 00:10:55;;;;;;;;;;;22.10;39.50;;;;;;688560;28;803;-90
2022/03/18 00:11:16;;;;;;;;;;;22.00;39.20;;;;;;688789;28;1203;-80
2022/03/18 00:11:36;;;;;;;;;;;22.00;40.20;;;;;;688372;28;1489;-82
2022/03/18 00:11:57;;;;;;;;;;;22.00;38.70;;;;;;688497;28;791;-83
2022/03/18 00:12:18;;;;;;;;;;;22.00;39.00;;;;;;688462;28;807;-81
2022/03/18 00:12:38;;;;;;;;;;;22.00;39.40;;;;;;690974;28;921;-81
2022/03/18 00:12:59;;;;;;;;;;;22.00;38.60;;;;;;694180;28;767;-82
2022/03/18 00:13:19;;;;;;;;;;;22.00;39.30;;;;;;694298;28;885;-82
2022/03/18 00:13:40;;;;;;;;;;;22.00;42.20;;;;;;696950;28;794;-82
2022/03/18 00:14:03;;;;;;;;;;;22.00;44.20;;;;;;698014;28;881;-81
2022/03/18 00:14:23;;;;;;;;;;;22.00;41.00;;;;;;696943;28;849;-81
2022/03/18 00:14:44;;;;;;;;;;;22.00;42.70;;;;;;696942;28;924;-81
2022/03/18 00:15:06;;;;;;;;;;;22.10;42.90;;;;;;697064;28;779;-82
2022/03/18 00:15:27;;;;;;;;;;;22.00;41.50;;;;;;696850;28;841;-81
2022/03/18 00:15:48;;;;;;;;;;;22.00;42.20;;;;;;696931;28;806;-81
2022/03/18 00:16:08;;;;;;;;;;;22.10;42.80;;;;;;697086;28;925;-80
2022/03/18 00:16:29;;;;;;;;;;;24.30;43.70;;;;;;697380;28;787;-81
2022/03/18 00:16:49;;;;;;;;;;;22.00;42.20;;;;;;696898;28;834;-81
2022/03/18 00:17:11;;;;;;;;;;;22.00;42.40;;;;;;697050;28;782;-81
2022/03/18 00:17:31;;;;;;;;;;;22.00;42.60;;;;;;696898;28;909;-82
2022/03/18 00:17:52;;;;;;;;;;;22.00;41.90;;;;;;694242;28;1192;-82
2022/03/18 00:18:13;;;;;;;;;;;22.00;41.60;;;;;;694008;28;838;-82
2022/03/18 00:18:33;;;;;;;;;;;22.00;41.30;;;;;;694036;28;882;-83
2022/03/18 00:18:54;;;;;;;;;;;21.90;42.20;;;;;;691375;28;1458;-81
2022/03/18 00:19:15;;;;;;;;;;;21.90;41.30;;;;;;691158;28;1630;-81
2022/03/18 00:19:36;;;;;;;;;;;21.90;41.40;;;;;;691293;28;838;-82
2022/03/18 00:19:57;;;;;;;;;;;21.90;41.00;;;;;;691474;28;902;-81
2022/03/18 00:20:18;;;;;;;;;;;21.90;40.10;;;;;;691287;28;811;-81
2022/03/18 00:20:39;;;;;;;;;;;21.90;39.70;;;;;;692124;28;842;-81
2022/03/18 00:21:00;;;;;;;;;;;21.90;40.60;;;;;;694651;28;818;-82
2022/03/18 00:21:21;;;;;;;;;;;21.90;40.80;;;;;;693589;28;1265;-82
2022/03/18 00:24:48;;;;;;;;;;;21.80;40.30;;;;;;696929;28;621;-81
2022/03/18 00:25:10;;;;;;;;;;;21.80;39.80;;;;;;696865;28;975;-82
2022/03/18 00:25:31;;;;;;;;;;;21.80;40.10;;;;;;696918;28;854;-82
2022/03/18 00:25:52;;;;;;;;;;;21.80;39.40;;;;;;693463;28;1115;-81
2022/03/18 00:26:12;;;;;;;;;;;21.80;39.70;;;;;;693958;28;822;-81
2022/03/18 00:26:33;;;;;;;;;;;21.80;39.80;;;;;;693962;28;763;-82
2022/03/18 00:26:54;;;;;;;;;;;21.80;38.80;;;;;;694102;28;495;-81
2022/03/18 00:27:15;;;;;;;;;;;21.80;38.70;;;;;;693982;28;835;-82
2022/03/18 00:27:36;;;;;;;;;;;21.80;39.00;;;;;;694424;28;516;-82
2022/03/18 00:27:57;;;;;;;;;;;21.80;39.10;;;;;;696877;28;914;-81
2022/03/18 00:28:17;;;;;;;;;;;21.80;39.00;;;;;;696938;28;843;-81
2022/03/18 00:28:39;;;;;;;;;;;21.70;39.20;;;;;;696945;28;803;-81
2022/03/18 00:28:59;;;;;;;;;;;21.80;39.00;;;;;;696912;28;1906;-81
2022/03/18 00:29:20;;;;;;;;;;;21.70;38.70;;;;;;696894;28;834;-83
2022/03/18 00:29:41;;;;;;;;;;;21.70;38.00;;;;;;696872;28;1124;-82
2022/03/18 00:30:06;;;;;;;;;;;21.70;38.40;;;;;;696908;28;1048;-81
2022/03/18 00:30:26;;;;;;;;;;;21.70;38.20;;;;;;696812;28;930;-82
2022/03/18 00:30:48;;;;;;;;;;;21.70;38.20;;;;;;696927;28;779;-81
2022/03/18 00:31:08;;;;;;;;;;;21.80;38.80;;;;;;696870;28;779;-82
2022/03/18 00:31:29;;;;;;;;;;;21.70;39.10;;;;;;696920;28;799;-81
2022/03/18 00:31:50;;;;;;;;;;;21.80;38.80;;;;;;696907;28;806;-81
2022/03/18 00:32:10;;;;;;;;;;;21.70;38.90;;;;;;696932;28;791;-81
2022/03/18 00:32:32;;;;;;;;;;;21.70;37.90;;;;;;696885;28;1018;-83
2022/03/18 00:32:53;;;;;;;;;;;21.70;37.50;;;;;;696872;28;830;-82
2022/03/18 00:33:13;;;;;;;;;;;21.70;37.50;;;;;;696889;28;814;-80
2022/03/18 00:33:34;;;;;;;;;;;21.70;38.00;;;;;;696980;28;949;-81
2022/03/18 00:33:54;;;;;;;;;;;21.70;39.00;;;;;;696939;28;858;-81
2022/03/18 00:34:15;;;;;;;;;;;21.70;38.30;;;;;;696861;28;814;-82
2022/03/18 00:34:35;;;;;;;;;;;21.70;37.60;;;;;;693882;28;1180;-82
2022/03/18 00:34:56;;;;;;;;;;;21.70;37.30;;;;;;694000;28;784;-81
2022/03/18 00:35:17;;;;;;;;;;;21.70;37.70;;;;;;693981;28;806;-81
2022/03/18 00:35:38;;;;;;;;;;;21.70;37.30;;;;;;694024;28;783;-81
2022/03/18 00:35:58;;;;;;;;;;;21.70;37.00;;;;;;693958;28;889;-81
2022/03/18 00:36:19;;;;;;;;;;;21.70;37.20;;;;;;693856;28;1391;-81
2022/03/18 00:36:39;;;;;;;;;;;21.70;37.20;;;;;;693885;28;775;-81
2022/03/18 00:37:00;;;;;;;;;;;21.70;38.00;;;;;;693971;28;834;-81
2022/03/18 00:37:20;;;;;;;;;;;21.70;38.60;;;;;;693916;28;909;-80
2022/03/18 00:37:41;;;;;;;;;;;21.70;39.40;;;;;;693927;28;791;-81
2022/03/18 00:38:02;;;;;;;;;;;21.70;37.70;;;;;;694275;28;960;-82
2022/03/18 00:38:23;;;;;;;;;;;21.70;37.70;;;;;;696835;28;799;-82
2022/03/18 00:38:43;;;;;;;;;;;21.70;37.60;;;;;;696946;28;834;-81
2022/03/18 00:39:05;;;;;;;;;;;21.70;37.10;;;;;;696773;28;940;-81
2022/03/18 00:39:26;;;;;;;;;;;21.70;37.10;;;;;;696815;28;846;-80
2022/03/18 00:39:46;;;;;;;;;;;21.70;37.50;;;;;;696777;28;834;-81
2022/03/18 00:40:07;;;;;;;;;;;21.60;37.60;;;;;;696971;28;902;-81
2022/03/18 00:40:28;;;;;;;;;;;21.70;36.70;;;;;;696826;28;862;-81
2022/03/18 00:40:50;;;;;;;;;;;21.60;36.80;;;;;;693738;28;1290;-81
2022/03/18 00:41:11;;;;;;;;;;;21.60;36.80;;;;;;693887;28;878;-81
2022/03/18 00:41:31;;;;;;;;;;;21.60;36.10;;;;;;691138;28;909;-81
2022/03/18 00:41:52;;;;;;;;;;;21.60;36.00;;;;;;691196;28;807;-82
2022/03/18 00:42:13;;;;;;;;;;;21.60;36.40;;;;;;691161;28;803;-82
2022/03/18 00:42:33;;;;;;;;;;;21.60;36.30;;;;;;689013;28;823;-81
2022/03/18 00:42:56;;;;;;;;;;;21.60;36.00;;;;;;691140;28;843;-81
2022/03/18 00:43:17;;;;;;;;;;;21.60;35.70;;;;;;691778;28;866;-82
2022/03/18 00:43:37;;;;;;;;;;;21.60;35.80;;;;;;694011;28;787;-82
2022/03/18 00:43:58;;;;;;;;;;;21.60;35.90;;;;;;693925;28;861;-81
2022/03/18 00:44:20;;;;;;;;;;;21.60;35.90;;;;;;691731;28;1477;-81
2022/03/18 00:44:41;;;;;;;;;;;21.60;36.10;;;;;;693843;28;830;-82
2022/03/18 00:45:04;;;;;;;;;;;21.60;36.50;;;;;;693947;28;830;-82
2022/03/18 00:45:25;;;;;;;;;;;21.60;36.40;;;;;;693950;28;826;-81
2022/03/18 00:45:45;;;;;;;;;;;21.60;35.90;;;;;;693851;28;822;-81
2022/03/18 00:46:06;;;;;;;;;;;21.60;35.70;;;;;;694840;28;877;-81
2022/03/18 00:46:26;;;;;;;;;;;21.60;35.80;;;;;;696847;28;783;-82
2022/03/18 00:46:47;;;;;;;;;;;21.60;35.40;;;;;;696874;28;830;-81
2022/03/18 00:52:03;;;;;;;;;;;21.60;35.40;;;;;;696890;28;791;-81
2022/03/18 00:52:21;;;;;;;;;;;21.60;35.20;;;;;;696854;28;659;-82
2022/03/18 00:52:41;;;;;;;;;;;21.60;34.90;;;;;;696744;28;1100;-82
2022/03/18 00:53:02;;;;;;;;;;;21.60;35.10;;;;;;696816;28;894;-81
2022/03/18 00:53:24;;;;;;;;;;;21.60;34.70;;;;;;696829;28;779;-82
2022/03/18 00:53:45;;;;;;;;;;;21.60;34.50;;;;;;696785;28;862;-82
2022/03/18 00:54:05;;;;;;;;;;;21.50;33.20;;;;;;696846;28;842;-81
2022/03/18 00:54:26;;;;;;;;;;;21.60;34.60;;;;;;696825;28;906;-82
2022/03/18 00:54:46;;;;;;;;;;;21.60;34.30;;;;;;696676;28;1373;-82
2022/03/18 00:55:07;;;;;;;;;;;21.50;34.20;;;;;;696993;28;806;-81
2022/03/18 00:55:28;;;;;;;;;;;21.60;34.10;;;;;;696703;28;942;-81
2022/03/18 00:55:48;;;;;;;;;;;21.50;33.00;;;;;;693623;28;1437;-81
2022/03/18 00:56:09;;;;;;;;;;;21.60;34.10;;;;;;693752;28;877;-81
2022/03/18 00:56:29;;;;;;;;;;;21.50;33.00;;;;;;691395;28;1433;-82
2022/03/18 00:56:50;;;;;;;;;;;21.60;33.90;;;;;;691014;28;882;-83
2022/03/18 00:57:11;;;;;;;;;;;21.50;33.70;;;;;;688210;28;1365;-81
2022/03/18 00:57:31;;;;;;;;;;;21.60;34.40;;;;;;688832;28;866;-82
2022/03/18 00:57:52;;;;;;;;;;;21.60;34.40;;;;;;690937;28;1288;-81
2022/03/18 00:58:12;;;;;;;;;;;21.50;34.00;;;;;;691323;28;846;-80
2022/03/18 00:58:33;;;;;;;;;;;21.50;34.00;;;;;;693861;28;966;-82
2022/03/18 00:58:53;;;;;;;;;;;21.50;33.80;;;;;;693834;28;861;-81
2022/03/18 00:59:14;;;;;;;;;;;21.50;34.00;;;;;;693669;28;1259;-81
2022/03/18 00:59:34;;;;;;;;;;;21.50;33.80;;;;;;694086;28;869;-82
2022/03/18 00:59:55;;;;;;;;;;;21.50;33.40;;;;;;696675;28;901;-80
2022/03/18 01:00:16;;;;;;;;;;;21.50;33.40;;;;;;696837;28;833;-81
2022/03/18 01:00:36;;;;;;;;;;;21.50;33.50;;;;;;696907;28;810;-82
2022/03/18 01:00:57;;;;;;;;;;;21.50;33.50;;;;;;696712;28;774;-82
2022/03/18 01:01:17;;;;;;;;;;;21.50;33.40;;;;;;696631;28;993;-82
2022/03/18 01:01:38;;;;;;;;;;;21.60;33.30;;;;;;693450;28;1780;-82
2022/03/18 01:01:59;;;;;;;;;;;21.50;33.40;;;;;;693713;28;783;-82
2022/03/18 01:02:19;;;;;;;;;;;21.50;33.40;;;;;;693813;28;785;-82
2022/03/18 01:02:40;;;;;;;;;;;21.50;33.40;;;;;;693775;28;864;-82
2022/03/18 01:03:00;;;;;;;;;;;21.50;33.40;;;;;;693913;28;786;-82
2022/03/18 01:03:21;;;;;;;;;;;21.50;33.30;;;;;;694077;28;894;-81
2022/03/18 01:03:41;;;;;;;;;;;21.50;33.20;;;;;;696722;28;791;-83
2022/03/18 01:04:02;;;;;;;;;;;21.50;33.10;;;;;;696777;28;857;-83
2022/03/18 01:04:24;;;;;;;;;;;21.50;33.10;;;;;;693663;28;1218;-82
2022/03/18 01:04:44;;;;;;;;;;;21.50;33.20;;;;;;693841;28;806;-82
2022/03/18 01:05:05;;;;;;;;;;;21.50;33.10;;;;;;693806;28;900;-81
2022/03/18 01:05:26;;;;;;;;;;;21.50;33.00;;;;;;693958;28;1104;-82
2022/03/18 01:05:46;;;;;;;;;;;21.50;33.00;;;;;;693795;28;825;-82
2022/03/18 01:06:07;;;;;;;;;;;21.50;33.10;;;;;;694310;28;857;-82
2022/03/18 01:06:28;;;;;;;;;;;21.50;32.90;;;;;;696826;28;881;-82
2022/03/18 01:06:55;;;;;;;;;;;21.50;32.80;;;;;;696742;28;925;-82
2022/03/18 01:07:16;;;;;;;;;;;21.50;32.80;;;;;;696637;28;806;-82
2022/03/18 01:07:37;;;;;;;;;;;21.50;32.90;;;;;;696695;28;1416;-82
2022/03/18 01:07:58;;;;;;;;;;;21.50;32.90;;;;;;696789;28;925;-82
2022/03/18 01:08:19;;;;;;;;;;;21.50;32.80;;;;;;696693;28;822;-82
2022/03/18 01:08:39;;;;;;;;;;;21.50;32.80;;;;;;696703;28;786;-82
2022/03/18 01:09:00;;;;;;;;;;;21.50;32.80;;;;;;696737;28;1914;-82
2022/03/18 01:09:21;;;;;;;;;;;21.50;32.70;;;;;;696547;28;1125;-84
2022/03/18 01:09:42;;;;;;;;;;;21.50;32.60;;;;;;696756;28;853;-82
2022/03/18 01:10:04;;;;;;;;;;;21.50;32.60;;;;;;696828;28;893;-82
2022/03/18 01:10:24;;;;;;;;;;;21.50;32.80;;;;;;696650;28;830;-82
2022/03/18 01:10:45;;;;;;;;;;;21.50;31.60;;;;;;696746;28;850;-83
2022/03/18 01:11:05;;;;;;;;;;;21.50;32.50;;;;;;696800;28;854;-83
2022/03/18 01:11:26;;;;;;;;;;;21.50;32.60;;;;;;693656;28;1362;-82
2022/03/18 01:11:47;;;;;;;;;;;21.50;32.40;;;;;;693727;28;802;-83
2022/03/18 01:12:08;;;;;;;;;;;21.50;32.30;;;;;;693841;28;969;-83
2022/03/18 01:12:29;;;;;;;;;;;21.50;32.20;;;;;;693891;28;806;-83
2022/03/18 01:12:49;;;;;;;;;;;21.50;32.50;;;;;;693797;28;969;-83
2022/03/18 01:13:10;;;;;;;;;;;21.50;32.50;;;;;;694113;28;920;-83
2022/03/18 01:13:30;;;;;;;;;;;21.50;32.40;;;;;;696800;28;886;-82
2022/03/18 01:13:51;;;;;;;;;;;21.50;32.20;;;;;;696752;28;879;-82
2022/03/18 01:14:12;;;;;;;;;;;21.50;32.40;;;;;;696737;28;912;-83
2022/03/18 01:14:32;;;;;;;;;;;21.50;32.40;;;;;;696771;28;782;-83
2022/03/18 01:14:53;;;;;;;;;;;21.50;32.50;;;;;;696776;28;888;-83
2022/03/18 01:15:13;;;;;;;;;;;21.50;32.40;;;;;;697038;28;865;-82
2022/03/18 01:15:34;;;;;;;;;;;21.50;32.60;;;;;;697343;28;845;-83
2022/03/18 01:15:55;;;;;;;;;;;21.50;32.60;;;;;;697243;28;862;-82
2022/03/18 01:16:15;;;;;;;;;;;21.50;32.60;;;;;;697382;28;885;-82
2022/03/18 01:16:36;;;;;;;;;;;21.50;32.20;;;;;;697357;28;604;-85
2022/03/18 01:16:56;;;;;;;;;;;21.50;32.20;;;;;;697250;28;818;-82
2022/03/18 01:17:17;;;;;;;;;;;21.50;32.20;;;;;;697291;28;719;-83
2022/03/18 01:17:38;;;;;;;;;;;21.50;32.20;;;;;;697395;28;976;-82
2022/03/18 01:17:58;;;;;;;;;;;21.50;32.60;;;;;;697323;28;849;-82
2022/03/18 01:18:19;;;;;;;;;;;21.50;32.30;;;;;;697302;28;795;-83
2022/03/18 01:18:40;;;;;;;;;;;21.50;32.40;;;;;;697394;28;842;-81
2022/03/18 01:19:00;;;;;;;;;;;21.50;32.40;;;;;;697437;28;783;-82
2022/03/18 01:19:21;;;;;;;;;;;21.50;32.20;;;;;;697327;28;972;-83
2022/03/18 01:19:41;;;;;;;;;;;21.50;32.20;;;;;;697399;28;826;-82
2022/03/18 01:20:03;;;;;;;;;;;21.50;32.00;;;;;;697496;28;811;-82
2022/03/18 01:20:23;;;;;;;;;;;21.50;32.00;;;;;;694202;28;1241;-79
2022/03/18 01:20:44;;;;;;;;;;;21.50;32.00;;;;;;694494;28;845;-81
2022/03/18 01:21:04;;;;;;;;;;;21.50;31.60;;;;;;694455;28;772;-82
2022/03/18 01:21:25;;;;;;;;;;;21.50;31.50;;;;;;691723;28;1608;-82
2022/03/18 01:21:45;;;;;;;;;;;21.50;31.50;;;;;;691722;28;854;-81
2022/03/18 01:22:08;;;;;;;;;;;21.50;30.70;;;;;;692021;28;1681;-81
2022/03/18 01:22:29;;;;;;;;;;;21.50;30.60;;;;;;694540;28;1329;-83
2022/03/18 01:22:50;;;;;;;;;;;21.50;31.80;;;;;;694529;28;865;-84
2022/03/18 01:23:11;;;;;;;;;;;21.50;31.70;;;;;;694603;28;802;-82
2022/03/18 01:23:31;;;;;;;;;;;21.50;31.80;;;;;;694615;28;715;-83
2022/03/18 01:23:52;;;;;;;;;;;21.50;31.70;;;;;;695339;28;969;-82
2022/03/18 01:24:13;;;;;;;;;;;21.50;31.70;;;;;;697406;28;806;-83
2022/03/18 01:24:33;;;;;;;;;;;21.50;30.70;;;;;;694676;28;1205;-81
2022/03/18 01:24:54;;;;;;;;;;;21.50;31.50;;;;;;694498;28;1035;-81
2022/03/18 01:25:14;;;;;;;;;;;21.50;31.60;;;;;;694462;28;916;-81
2022/03/18 01:25:35;;;;;;;;;;;21.50;31.50;;;;;;694563;28;874;-82
2022/03/18 01:25:56;;;;;;;;;;;21.50;30.50;;;;;;694687;28;787;-84
2022/03/18 01:26:16;;;;;;;;;;;21.50;31.20;;;;;;694713;28;862;-83
2022/03/18 01:26:37;;;;;;;;;;;21.50;31.20;;;;;;697935;28;810;-86
2022/03/18 01:26:57;;;;;;;;;;;21.50;31.40;;;;;;698156;28;794;-88
2022/03/18 01:27:18;;;;;;;;;;;21.50;31.40;;;;;;697402;28;830;-83
2022/03/18 01:27:39;;;;;;;;;;;21.50;31.20;;;;;;694296;28;1437;-81
2022/03/18 01:28:04;;;;;;;;;;;21.50;31.20;;;;;;694598;28;893;-88
2022/03/18 01:28:27;;;;;;;;;;;21.60;31.70;;;;;;694636;28;822;-86
2022/03/18 01:28:47;;;;;;;;;;;21.50;30.40;;;;;;694310;28;830;-87
2022/03/18 01:29:08;;;;;;;;;;;21.50;31.20;;;;;;694533;28;1910;-88
2022/03/18 01:29:29;;;;;;;;;;;21.50;30.00;;;;;;695893;28;845;-84
2022/03/18 01:29:49;;;;;;;;;;;21.60;31.10;;;;;;697253;28;929;-85
2022/03/18 01:30:10;;;;;;;;;;;21.50;30.90;;;;;;697382;28;842;-84
2022/03/18 01:30:31;;;;;;;;;;;21.50;30.90;;;;;;697286;28;1159;-87
2022/03/18 01:30:51;;;;;;;;;;;21.50;30.10;;;;;;697274;28;1003;-82
2022/03/18 01:31:12;;;;;;;;;;;21.50;30.20;;;;;;697369;28;803;-84
2022/03/18 01:31:33;;;;;;;;;;;21.50;31.10;;;;;;697319;28;1071;-83
2022/03/18 01:31:53;;;;;;;;;;;21.50;30.70;;;;;;697350;28;858;-78
2022/03/18 01:32:14;;;;;;;;;;;21.50;30.80;;;;;;693972;28;1386;-84
2022/03/18 01:32:34;;;;;;;;;;;21.50;31.00;;;;;;694438;28;806;-87
2022/03/18 01:32:55;;;;;;;;;;;21.50;31.20;;;;;;694409;28;791;-87
2022/03/18 01:33:16;;;;;;;;;;;21.50;31.30;;;;;;694328;28;898;-82
2022/03/18 01:33:37;;;;;;;;;;;21.50;30.00;;;;;;694298;28;810;-80
2022/03/18 01:33:57;;;;;;;;;;;21.50;30.00;;;;;;694638;28;783;-79
2022/03/18 01:34:18;;;;;;;;;;;21.50;31.20;;;;;;694156;28;1368;-83
2022/03/18 01:34:39;;;;;;;;;;;21.50;30.00;;;;;;694336;28;868;-78
2022/03/18 01:34:59;;;;;;;;;;;21.60;30.90;;;;;;694427;28;803;-79
2022/03/18 01:35:20;;;;;;;;;;;21.60;30.80;;;;;;691040;28;1338;-79
2022/03/18 01:35:41;;;;;;;;;;;21.50;30.50;;;;;;691508;28;775;-84
2022/03/18 01:36:01;;;;;;;;;;;21.50;30.50;;;;;;692007;28;1066;-82
2022/03/18 01:36:22;;;;;;;;;;;21.60;30.40;;;;;;694343;28;914;-84
2022/03/18 01:36:43;;;;;;;;;;;21.50;30.30;;;;;;694328;28;787;-83
2022/03/18 01:37:03;;;;;;;;;;;21.50;29.70;;;;;;694620;28;806;-78
2022/03/18 01:37:24;;;;;;;;;;;21.50;30.00;;;;;;697334;28;830;-84
2022/03/18 01:37:44;;;;;;;;;;;21.60;30.70;;;;;;694100;28;1408;-84
2022/03/18 01:38:05;;;;;;;;;;;21.60;30.60;;;;;;694444;28;806;-80
2022/03/18 01:38:25;;;;;;;;;;;21.50;29.70;;;;;;694264;28;838;-82
2022/03/18 01:38:46;;;;;;;;;;;21.50;29.70;;;;;;694277;28;799;-80
2022/03/18 01:39:06;;;;;;;;;;;21.60;30.40;;;;;;694169;28;953;-81
2022/03/18 01:39:27;;;;;;;;;;;21.50;30.30;;;;;;691955;28;1309;-81
2022/03/18 01:39:48;;;;;;;;;;;21.50;29.60;;;;;;694190;28;846;-80
2022/03/18 01:40:09;;;;;;;;;;;21.50;30.40;;;;;;694444;28;842;-84
2022/03/18 01:40:29;;;;;;;;;;;21.60;30.30;;;;;;694427;28;807;-89
2022/03/18 01:40:51;;;;;;;;;;;21.60;29.90;;;;;;691503;28;1219;-87
2022/03/18 01:41:11;;;;;;;;;;;21.50;29.50;;;;;;692061;28;807;-93
2022/03/18 01:41:33;;;;;;;;;;;21.50;30.20;;;;;;694558;28;853;-89
2022/03/18 01:41:53;;;;;;;;;;;21.60;30.00;;;;;;694308;28;902;-78
2022/03/18 01:42:14;;;;;;;;;;;21.60;29.40;;;;;;694245;28;1504;-88
2022/03/18 01:42:35;;;;;;;;;;;21.50;29.90;;;;;;695065;28;960;-84
2022/03/18 01:42:55;;;;;;;;;;;21.60;30.00;;;;;;697269;28;910;-85
2022/03/18 01:43:16;;;;;;;;;;;21.60;30.00;;;;;;697095;28;992;-89
2022/03/18 01:43:41;;;;;;;;;;;21.50;29.90;;;;;;697482;28;996;-85
2022/03/18 01:44:02;;;;;;;;;;;21.50;29.40;;;;;;694259;28;1247;-84
2022/03/18 01:44:22;;;;;;;;;;;21.60;31.10;;;;;;694529;28;861;-86
2022/03/18 01:44:43;;;;;;;;;;;20.20;28.70;;;;;;694372;28;878;-84
2022/03/18 01:45:04;;;;;;;;;;;21.50;29.20;;;;;;694526;28;1008;-86
2022/03/18 01:45:25;;;;;;;;;;;21.50;29.80;;;;;;694454;28;834;-88
2022/03/18 01:45:45;;;;;;;;;;;21.60;29.60;;;;;;694767;28;783;-85
2022/03/18 01:46:07;;;;;;;;;;;21.50;29.10;;;;;;697234;28;830;-81
2022/03/18 01:46:27;;;;;;;;;;;21.50;29.80;;;;;;697296;28;910;-87
2022/03/18 01:46:48;;;;;;;;;;;21.60;29.90;;;;;;697383;28;906;-86
2022/03/18 01:47:09;;;;;;;;;;;21.50;29.10;;;;;;697371;28;897;-84
2022/03/18 01:47:30;;;;;;;;;;;21.50;29.80;;;;;;697457;28;850;-88
2022/03/18 01:47:50;;;;;;;;;;;21.50;29.70;;;;;;697434;28;858;-93
2022/03/18 01:48:11;;;;;;;;;;;21.50;29.10;;;;;;697224;28;902;-88
2022/03/18 01:48:32;;;;;;;;;;;21.50;29.10;;;;;;697422;28;1302;-85
2022/03/18 01:48:52;;;;;;;;;;;21.50;29.80;;;;;;697660;28;882;-87
2022/03/18 01:49:13;;;;;;;;;;;21.50;29.60;;;;;;697304;28;1963;-87
2022/03/18 01:49:34;;;;;;;;;;;21.50;29.70;;;;;;697312;28;787;-82
2022/03/18 01:49:58;;;;;;;;;;;21.50;29.70;;;;;;697195;28;882;-83
2022/03/18 01:50:18;;;;;;;;;;;21.50;29.70;;;;;;697146;28;866;-84
2022/03/18 01:50:40;;;;;;;;;;;21.50;29.70;;;;;;697267;28;811;-83
2022/03/18 01:51:01;;;;;;;;;;;21.50;29.50;;;;;;693667;28;1218;-89
2022/03/18 01:51:22;;;;;;;;;;;21.50;29.40;;;;;;694357;28;846;-86
2022/03/18 01:51:43;;;;;;;;;;;21.50;29.50;;;;;;694271;28;818;-80
2022/03/18 01:52:05;;;;;;;;;;;21.50;29.40;;;;;;694253;28;970;-79
2022/03/18 01:52:26;;;;;;;;;;;21.50;29.40;;;;;;694142;28;862;-80
2022/03/18 01:52:46;;;;;;;;;;;21.50;29.40;;;;;;694975;28;778;-81
2022/03/18 01:53:07;;;;;;;;;;;21.50;29.40;;;;;;697239;28;933;-81
2022/03/18 01:53:28;;;;;;;;;;;21.50;29.50;;;;;;697191;28;854;-81
2022/03/18 01:54:44;;;;;;;;;;;21.50;29.60;;;;;;697128;28;921;-80
2022/03/18 01:54:44;;;;;;;;;;;21.50;29.50;;;;;;697033;28;861;-80
2022/03/18 01:55:06;;;;;;;;;;;21.50;29.60;;;;;;697210;28;826;-81
2022/03/18 01:55:27;;;;;;;;;;;21.40;29.30;;;;;;697116;28;1056;-82
2022/03/18 01:55:47;;;;;;;;;;;21.40;29.40;;;;;;697170;28;854;-81
2022/03/18 01:56:08;;;;;;;;;;;21.40;29.30;;;;;;697249;28;886;-81
2022/03/18 01:56:29;;;;;;;;;;;21.40;29.50;;;;;;694162;28;1236;-82
2022/03/18 01:56:50;;;;;;;;;;;21.40;28.60;;;;;;694204;28;846;-79
2022/03/18 01:57:11;;;;;;;;;;;21.40;29.30;;;;;;694242;28;775;-82
2022/03/18 01:57:32;;;;;;;;;;;21.40;29.20;;;;;;694363;28;890;-81
2022/03/18 01:57:53;;;;;;;;;;;21.40;29.40;;;;;;694127;28;941;-79
2022/03/18 01:58:13;;;;;;;;;;;22.20;29.60;;;;;;694856;28;819;-80
2022/03/18 01:58:34;;;;;;;;;;;21.40;29.30;;;;;;697281;28;885;-79
2022/03/18 01:58:54;;;;;;;;;;;21.40;29.30;;;;;;697056;28;934;-80
2022/03/18 01:59:15;;;;;;;;;;;21.40;29.30;;;;;;697006;28;1113;-80
2022/03/18 01:59:36;;;;;;;;;;;21.40;29.20;;;;;;697291;28;854;-79
2022/03/18 01:59:57;;;;;;;;;;;21.40;28.70;;;;;;697070;28;827;-79
2022/03/18 02:00:21;;;;;;;;;;;21.40;29.50;;;;;;697107;28;811;-81
2022/03/18 02:00:42;;;;;;;;;;;21.40;29.40;;;;;;694187;28;874;-83
2022/03/18 02:01:03;;;;;;;;;;;21.40;29.30;;;;;;694251;28;866;-84
2022/03/18 02:01:24;;;;;;;;;;;21.40;29.20;;;;;;694238;28;853;-82
2022/03/18 02:01:45;;;;;;;;;;;21.40;29.20;;;;;;694191;28;842;-82
2022/03/18 02:02:06;;;;;;;;;;;21.40;29.20;;;;;;694327;28;909;-78
2022/03/18 02:02:26;;;;;;;;;;;21.40;29.30;;;;;;695127;28;902;-80
2022/03/18 02:02:47;;;;;;;;;;;21.40;29.30;;;;;;697142;28;767;-81
2022/03/18 02:03:08;;;;;;;;;;;21.40;28.70;;;;;;697231;28;799;-79
2022/03/18 02:03:29;;;;;;;;;;;21.40;29.30;;;;;;697117;28;822;-79
2022/03/18 02:03:49;;;;;;;;;;;21.40;29.20;;;;;;697143;28;889;-85
2022/03/18 02:04:10;;;;;;;;;;;21.40;29.20;;;;;;697153;28;826;-84
2022/03/18 02:04:32;;;;;;;;;;;21.40;28.50;;;;;;697220;28;786;-79
2022/03/18 02:04:55;;;;;;;;;;;21.40;29.30;;;;;;697362;28;838;-79
2022/03/18 02:05:16;;;;;;;;;;;21.40;29.30;;;;;;697132;28;882;-82
2022/03/18 02:05:36;;;;;;;;;;;21.40;29.40;;;;;;694243;28;1249;-84
2022/03/18 02:05:57;;;;;;;;;;;21.40;29.30;;;;;;694204;28;893;-83
2022/03/18 02:06:17;;;;;;;;;;;21.40;29.20;;;;;;693669;28;1349;-83
2022/03/18 02:06:41;;;;;;;;;;;21.40;29.20;;;;;;694317;28;862;-81
2022/03/18 02:07:02;;;;;;;;;;;21.40;29.50;;;;;;694255;28;790;-78
2022/03/18 02:07:23;;;;;;;;;;;21.40;28.70;;;;;;694245;28;861;-80
2022/03/18 02:07:44;;;;;;;;;;;21.40;29.40;;;;;;694232;28;827;-83
2022/03/18 02:08:07;;;;;;;;;;;21.40;28.60;;;;;;695308;28;842;-88
2022/03/18 02:08:28;;;;;;;;;;;21.40;29.50;;;;;;697178;28;885;-84
2022/03/18 02:08:49;;;;;;;;;;;21.40;29.50;;;;;;697208;28;802;-84
2022/03/18 02:09:09;;;;;;;;;;;21.40;29.40;;;;;;696193;28;1961;-81
2022/03/18 02:09:31;;;;;;;;;;;21.40;29.50;;;;;;696848;28;885;-84
2022/03/18 02:09:51;;;;;;;;;;;21.40;29.40;;;;;;697277;28;838;-81
2022/03/18 02:10:12;;;;;;;;;;;21.40;29.40;;;;;;697217;28;779;-82
2022/03/18 02:10:33;;;;;;;;;;;21.40;29.20;;;;;;693335;28;1320;-80
2022/03/18 02:10:54;;;;;;;;;;;21.40;29.20;;;;;;691140;28;1294;-79
2022/03/18 02:11:15;;;;;;;;;;;21.40;29.20;;;;;;691440;28;1326;-76
2022/03/18 02:11:35;;;;;;;;;;;21.40;29.20;;;;;;691519;28;870;-78
2022/03/18 02:11:56;;;;;;;;;;;21.40;29.20;;;;;;691622;28;779;-79
2022/03/18 02:12:17;;;;;;;;;;;21.40;29.30;;;;;;691994;28;795;-79
2022/03/18 02:12:37;;;;;;;;;;;21.40;29.20;;;;;;694602;28;948;-80
2022/03/18 02:12:58;;;;;;;;;;;21.40;29.30;;;;;;697176;28;935;-80
2022/03/18 02:13:18;;;;;;;;;;;21.40;29.20;;;;;;697205;28;925;-84
2022/03/18 02:13:39;;;;;;;;;;;21.40;29.20;;;;;;697119;28;802;-81
2022/03/18 02:13:59;;;;;;;;;;;21.40;29.30;;;;;;697203;28;845;-84
2022/03/18 02:14:33;;;;;;;;;;;21.40;29.20;;;;;;697064;28;845;-83
2022/03/18 02:14:54;;;;;;;;;;;21.30;28.80;;;;;;697151;28;853;-82
2022/03/18 02:15:15;;;;;;;;;;;21.30;29.10;;;;;;697126;28;842;-83
2022/03/18 02:15:35;;;;;;;;;;;21.30;29.20;;;;;;697168;28;790;-83